createdAt,value
2018-09-14T00:01:57.105Z,5.40
2018-09-14T00:04:25.754Z,6.10
2018-09-14T00:06:54.545Z,5.27
2018-09-14T00:09:23.302Z,5.03
2018-09-14T00:11:51.990Z,5.17
2018-09-14T00:14:20.734Z,5.70
2018-09-14T00:16:49.551Z,5.50
2018-09-14T00:19:18.210Z,5.97
2018-09-14T00:21:46.916Z,5.90
2018-09-14T00:24:15.764Z,5.67
2018-09-14T00:26:44.378Z,5.43
2018-09-14T00:29:13.661Z,5.93
2018-09-14T00:31:42.235Z,6.27
2018-09-14T00:34:11.614Z,5.60
2018-09-14T00:36:40.528Z,5.93
2018-09-14T00:39:12.275Z,5.93
2018-09-14T00:41:40.917Z,6.17
2018-09-14T00:44:09.597Z,6.20
2018-09-14T00:46:38.349Z,6.53
2018-09-14T00:49:06.974Z,6.63
2018-09-14T00:51:35.621Z,6.00
2018-09-14T00:54:05.290Z,6.17
2018-09-14T00:56:34.161Z,6.60
2018-09-14T00:59:03.764Z,7.37
2018-09-14T01:01:33.232Z,7.40
2018-09-14T01:04:02.020Z,6.93
2018-09-14T01:06:30.747Z,7.23
2018-09-14T01:08:59.569Z,7.60
2018-09-14T01:11:28.341Z,7.13
2018-09-14T01:13:57.547Z,8.20
2018-09-14T01:16:26.216Z,7.63
2018-09-14T01:18:54.770Z,7.33
2018-09-14T01:21:23.533Z,7.70
2018-09-14T01:23:52.205Z,7.63
2018-09-14T01:26:20.896Z,7.47
2018-09-14T01:28:49.569Z,7.67
2018-09-14T01:31:18.279Z,7.33
2018-09-14T01:33:46.928Z,8.17
2018-09-14T01:36:15.620Z,7.17
2018-09-14T01:38:44.965Z,7.93
2018-09-14T01:41:13.624Z,8.07
2018-09-14T01:43:42.316Z,7.73
2018-09-14T01:46:10.985Z,8.50
2018-09-14T01:48:39.650Z,7.60
2018-09-14T01:51:08.380Z,7.97
2018-09-14T01:53:37.089Z,7.03
2018-09-14T01:56:06.353Z,7.73
2018-09-14T01:58:35.953Z,7.57
2018-09-14T02:01:04.678Z,7.30
2018-09-14T02:03:33.545Z,6.83
2018-09-14T02:06:02.284Z,7.50
2018-09-14T02:08:30.912Z,6.07
2018-09-14T02:10:59.673Z,6.97
2018-09-14T02:13:30.186Z,6.50
2018-09-14T02:15:59.025Z,6.70
2018-09-14T02:18:28.343Z,6.57
2018-09-14T02:20:57.356Z,6.73
2018-09-14T02:23:26.906Z,6.70
2018-09-14T02:25:55.748Z,6.57
2018-09-14T02:28:24.627Z,6.27
2018-09-14T02:30:53.637Z,6.90
2018-09-14T02:33:37.051Z,6.77
2018-09-14T02:36:05.905Z,6.23
2018-09-14T02:38:35.383Z,7.37
2018-09-14T02:41:04.647Z,7.00
2018-09-14T02:43:33.563Z,6.80
2018-09-14T02:46:02.550Z,6.47
2018-09-14T02:48:31.406Z,6.20
2018-09-14T02:51:00.906Z,6.67
2018-09-14T02:53:30.405Z,6.60
2018-09-14T02:56:00.043Z,6.60
2018-09-14T02:58:28.955Z,5.67
2018-09-14T03:00:57.991Z,5.77
2018-09-14T03:03:28.889Z,5.97
2018-09-14T03:05:57.980Z,6.37
2018-09-14T03:08:26.836Z,6.17
2018-09-14T03:10:55.703Z,6.30
2018-09-14T03:13:24.460Z,6.00
2018-09-14T03:15:53.460Z,6.10
2018-09-14T03:18:22.496Z,5.93
2018-09-14T03:20:51.902Z,6.57
2018-09-14T03:23:20.730Z,5.83
2018-09-14T03:25:49.526Z,5.77
2018-09-14T03:28:19.666Z,6.20
2018-09-14T03:30:48.393Z,6.60
2018-09-14T03:33:17.941Z,5.63
2018-09-14T03:35:46.757Z,5.63
2018-09-14T03:38:15.630Z,6.30
2018-09-14T03:40:44.400Z,6.23
2018-09-14T03:43:13.426Z,5.67
2018-09-14T03:45:42.333Z,6.57
2018-09-14T03:48:11.230Z,6.47
2018-09-14T03:50:39.939Z,6.47
2018-09-14T03:53:09.457Z,5.77
2018-09-14T03:55:38.296Z,5.87
2018-09-14T03:58:07.965Z,7.53
2018-09-14T04:00:36.916Z,6.87
2018-09-14T04:03:06.269Z,7.33
2018-09-14T04:05:35.238Z,6.73
2018-09-14T04:08:04.167Z,6.80
2018-09-14T04:10:32.995Z,6.70
2018-09-14T04:13:01.838Z,7.10
2018-09-14T04:15:30.923Z,7.73
2018-09-14T04:17:59.818Z,6.47
2018-09-14T04:20:28.607Z,7.77
2018-09-14T04:26:16.455Z,6.93
2018-09-14T04:28:45.229Z,7.63
2018-09-14T04:31:14.161Z,6.93
2018-09-14T04:33:43.618Z,8.07
2018-09-14T04:36:13.174Z,7.87
2018-09-14T04:38:43.093Z,7.47
2018-09-14T04:41:35.076Z,8.00
2018-09-14T04:44:04.913Z,7.13
2018-09-14T04:46:36.404Z,7.57
2018-09-14T04:49:07.342Z,8.60
2018-09-14T04:51:36.818Z,7.70
2018-09-14T04:54:07.436Z,7.50
2018-09-14T04:56:36.340Z,8.07
2018-09-14T04:59:05.282Z,8.00
2018-09-14T05:01:34.600Z,7.60
2018-09-14T05:04:04.501Z,8.63
2018-09-14T05:06:38.526Z,8.73
2018-09-14T05:09:08.934Z,8.13
2018-09-14T05:11:38.855Z,7.57
2018-09-14T05:14:08.507Z,7.90
2018-09-14T05:16:42.898Z,7.83
2018-09-14T05:19:12.413Z,8.13
2018-09-14T05:21:41.723Z,8.80
2018-09-14T05:24:13.362Z,8.90
2018-09-14T05:26:44.275Z,8.97
2018-09-14T05:29:16.211Z,9.70
2018-09-14T05:31:46.207Z,9.10
2018-09-14T05:34:16.439Z,8.90
2018-09-14T05:36:47.019Z,10.53
2018-09-14T05:39:16.774Z,9.93
2018-09-14T05:41:47.299Z,9.27
2018-09-14T05:44:18.709Z,9.10
2018-09-14T05:46:54.720Z,9.80
2018-09-14T05:49:26.299Z,10.03
2018-09-14T05:51:55.214Z,10.50
2018-09-14T05:54:23.898Z,10.13
2018-09-14T05:56:52.614Z,10.30
2018-09-14T05:59:21.440Z,11.87
2018-09-14T06:01:53.222Z,10.30
2018-09-14T06:04:23.086Z,11.13
2018-09-14T06:06:51.698Z,11.67
2018-09-14T06:09:20.390Z,11.30
2018-09-14T06:11:49.065Z,12.47
2018-09-14T06:14:18.253Z,10.90
2018-09-14T06:16:46.874Z,11.47
2018-09-14T06:19:15.513Z,11.57
2018-09-14T06:21:44.222Z,11.73
2018-09-14T06:24:12.957Z,11.57
2018-09-14T06:26:41.691Z,11.77
2018-09-14T06:29:10.444Z,11.90
2018-09-14T06:31:39.202Z,11.80
2018-09-14T06:34:07.926Z,11.67
2018-09-14T06:36:36.589Z,12.33
2018-09-14T06:39:08.237Z,11.30
2018-09-14T06:41:36.821Z,12.17
2018-09-14T06:44:05.464Z,12.93
2018-09-14T06:46:34.181Z,13.37
2018-09-14T06:49:03.480Z,11.83
2018-09-14T06:51:32.119Z,12.00
2018-09-14T06:54:00.849Z,12.97
2018-09-14T06:56:29.536Z,12.30
2018-09-14T06:58:58.602Z,12.03
2018-09-14T07:01:27.898Z,12.30
2018-09-14T07:03:56.563Z,12.53
2018-09-14T07:06:25.333Z,12.93
2018-09-14T07:08:53.947Z,13.63
2018-09-14T07:11:22.670Z,13.63
2018-09-14T07:13:52.583Z,12.67
2018-09-14T07:16:21.298Z,13.03
2018-09-14T07:18:50.048Z,12.67
2018-09-14T07:21:18.757Z,13.20
2018-09-14T07:23:47.528Z,13.03
2018-09-14T07:26:16.221Z,13.40
2018-09-14T07:28:45.002Z,13.77
2018-09-14T07:31:13.726Z,13.20
2018-09-14T07:33:42.491Z,13.10
2018-09-14T07:36:11.275Z,14.60
2018-09-14T07:38:39.980Z,12.37
2018-09-14T07:41:08.853Z,12.97
2018-09-14T07:43:37.647Z,14.37
2018-09-14T07:46:06.560Z,12.77
2018-09-14T07:48:35.406Z,11.63
2018-09-14T07:51:04.522Z,14.07
2018-09-14T07:53:33.439Z,13.67
2018-09-14T07:56:02.186Z,15.43
2018-09-14T07:58:30.912Z,13.27
2018-09-14T08:00:59.752Z,14.93
2018-09-14T08:03:28.430Z,14.27
2018-09-14T08:05:57.073Z,14.67
2018-09-14T08:08:25.805Z,14.40
2018-09-14T08:10:54.450Z,15.00
2018-09-14T08:13:23.321Z,15.53
2018-09-14T08:15:51.936Z,15.50
2018-09-14T08:18:20.651Z,15.10
2018-09-14T08:20:49.338Z,13.87
2018-09-14T08:23:17.932Z,15.30
2018-09-14T08:25:46.580Z,14.80
2018-09-14T08:28:15.284Z,15.60
2018-09-14T08:30:43.986Z,14.87
2018-09-14T08:33:12.576Z,14.57
2018-09-14T08:35:41.262Z,15.00
2018-09-14T08:38:09.934Z,15.37
2018-09-14T08:40:38.663Z,15.10
2018-09-14T08:43:07.310Z,14.80
2018-09-14T08:45:36.020Z,15.33
2018-09-14T08:48:04.937Z,15.37
2018-09-14T08:50:33.518Z,15.03
2018-09-14T08:53:02.251Z,15.30
2018-09-14T08:55:30.854Z,15.17
2018-09-14T08:57:59.641Z,14.90
2018-09-14T09:00:28.237Z,14.73
2018-09-14T09:02:56.841Z,14.63
2018-09-14T09:05:25.483Z,12.83
2018-09-14T09:07:54.121Z,14.60
2018-09-14T09:10:22.727Z,12.97
2018-09-14T09:12:51.386Z,13.97
2018-09-14T09:15:20.154Z,12.30
2018-09-14T09:17:48.916Z,10.70
2018-09-14T09:20:17.487Z,9.90
2018-09-14T09:22:46.106Z,9.87
2018-09-14T09:25:15.334Z,11.10
2018-09-14T09:27:43.938Z,10.70
2018-09-14T09:30:12.512Z,10.20
2018-09-14T09:32:41.110Z,10.80
2018-09-14T09:35:09.782Z,10.17
2018-09-14T09:37:38.369Z,10.90
2018-09-14T09:40:06.995Z,10.80
2018-09-14T09:42:35.568Z,10.43
2018-09-14T09:45:04.274Z,10.60
2018-09-14T09:47:33.006Z,9.97
2018-09-14T09:50:01.670Z,10.07
2018-09-14T09:52:30.384Z,10.50
2018-09-14T09:54:58.987Z,10.70
2018-09-14T09:57:27.597Z,10.07
2018-09-14T09:59:56.215Z,10.80
2018-09-14T10:02:29.298Z,10.77
2018-09-14T10:05:03.995Z,11.27
2018-09-14T10:07:32.738Z,11.37
2018-09-14T10:10:01.444Z,12.27
2018-09-14T10:12:30.227Z,12.70
2018-09-14T10:14:58.978Z,12.50
2018-09-14T10:17:27.670Z,10.93
2018-09-14T10:19:56.365Z,12.37
2018-09-14T10:22:25.095Z,11.93
2018-09-14T10:24:53.747Z,11.30
2018-09-14T10:27:22.448Z,11.57
2018-09-14T10:29:51.142Z,12.63
2018-09-14T10:32:19.869Z,11.70
2018-09-14T10:34:48.660Z,11.57
2018-09-14T10:37:17.427Z,11.27
2018-09-14T10:39:46.151Z,11.13
2018-09-14T10:42:14.791Z,11.43
2018-09-14T10:44:43.473Z,10.70
2018-09-14T10:47:12.166Z,9.27
2018-09-14T10:49:40.903Z,9.23
2018-09-14T10:52:09.558Z,9.63
2018-09-14T10:54:38.275Z,9.80
2018-09-14T10:57:06.857Z,10.00
2018-09-14T10:59:35.560Z,8.17
2018-09-14T11:02:05.119Z,7.43
2018-09-14T11:04:33.973Z,6.50
2018-09-14T11:07:02.705Z,5.90
2018-09-14T11:09:31.596Z,5.13
2018-09-14T11:12:00.235Z,4.53
2018-09-14T11:14:29.034Z,4.83
2018-09-14T11:16:57.617Z,4.00
2018-09-14T11:19:26.332Z,4.03
2018-09-14T11:21:55.219Z,4.10
2018-09-14T11:24:23.812Z,4.23
2018-09-14T11:26:52.553Z,3.60
2018-09-14T11:29:21.180Z,3.40
2018-09-14T11:31:50.196Z,2.53
2018-09-14T11:34:18.902Z,3.03
2018-09-14T11:36:48.309Z,2.80
2018-09-14T11:39:16.994Z,1.70
2018-09-14T11:41:45.828Z,1.90
2018-09-14T11:44:14.413Z,1.80
2018-09-14T11:46:43.126Z,1.40
2018-09-14T11:49:11.851Z,1.50
2018-09-14T11:51:40.477Z,1.27
2018-09-14T11:54:09.149Z,1.40
2018-09-14T11:56:37.856Z,1.40
2018-09-14T11:59:06.544Z,1.23
2018-09-14T12:01:35.169Z,1.70
2018-09-14T12:04:03.926Z,2.10
2018-09-14T12:06:32.547Z,1.50
2018-09-14T12:09:01.304Z,1.57
2018-09-14T12:11:30.018Z,1.60
2018-09-14T12:13:58.696Z,1.60
2018-09-14T12:16:27.333Z,1.57
2018-09-14T12:18:56.020Z,2.00
2018-09-14T12:21:24.732Z,1.47
2018-09-14T12:23:53.508Z,2.03
2018-09-14T12:26:22.164Z,1.30
2018-09-14T12:28:50.890Z,1.83
2018-09-14T12:31:19.545Z,1.20
2018-09-14T12:33:48.195Z,1.43
2018-09-14T12:36:17.041Z,1.60
2018-09-14T12:38:45.637Z,1.50
2018-09-14T12:41:15.133Z,1.60
2018-09-14T12:43:43.821Z,1.87
2018-09-14T12:46:12.494Z,6.67
2018-09-14T12:48:41.145Z,3.20
2018-09-14T12:51:10.814Z,1.93
2018-09-14T12:53:39.430Z,1.30
2018-09-14T12:56:08.054Z,1.47
2018-09-14T12:58:36.808Z,1.80
2018-09-14T13:01:05.589Z,8.60
2018-09-14T13:03:34.397Z,1.67
2018-09-14T13:06:03.267Z,1.67
2018-09-14T13:08:32.019Z,1.30
2018-09-14T13:11:00.671Z,1.80
2018-09-14T13:13:29.328Z,1.60
2018-09-14T13:15:58.019Z,2.07
2018-09-14T13:18:26.582Z,1.80
2018-09-14T13:20:56.256Z,2.00
2018-09-14T13:23:24.857Z,1.83
2018-09-14T13:25:53.677Z,2.00
2018-09-14T13:28:22.263Z,1.47
2018-09-14T13:30:50.870Z,1.90
2018-09-14T13:33:19.502Z,1.70
2018-09-14T13:35:48.120Z,1.33
2018-09-14T13:38:16.756Z,1.60
2018-09-14T13:40:45.375Z,1.53
2018-09-14T13:43:14.110Z,1.20
2018-09-14T13:45:42.709Z,1.60
2018-09-14T13:48:11.291Z,1.40
2018-09-14T13:50:40.001Z,1.80
2018-09-14T13:53:08.713Z,1.57
2018-09-14T13:55:37.658Z,1.47
2018-09-14T13:58:06.481Z,1.73
2018-09-14T14:00:35.170Z,1.73
2018-09-14T14:03:04.069Z,1.77
2018-09-14T14:05:32.679Z,1.40
2018-09-14T14:08:01.401Z,1.43
2018-09-14T14:10:29.956Z,1.63
2018-09-14T14:12:59.128Z,1.90
2018-09-14T14:15:27.733Z,1.57
2018-09-14T14:17:56.420Z,1.87
2018-09-14T14:20:25.052Z,1.10
2018-09-14T14:22:53.594Z,1.63
2018-09-14T14:25:22.405Z,1.40
2018-09-14T14:27:51.109Z,1.60
2018-09-14T14:30:19.701Z,1.63
2018-09-14T14:32:48.343Z,1.67
2018-09-14T14:35:17.109Z,1.50
2018-09-14T14:37:45.807Z,1.87
2018-09-14T14:40:14.472Z,1.63
2018-09-14T14:42:43.122Z,1.60
2018-09-14T14:45:11.707Z,1.50
2018-09-14T14:47:40.308Z,1.53
2018-09-14T14:50:08.905Z,1.97
2018-09-14T14:52:37.700Z,1.70
2018-09-14T14:55:06.395Z,1.53
2018-09-14T14:57:35.037Z,1.47
2018-09-14T15:00:03.701Z,1.40
2018-09-14T15:02:32.429Z,1.13
2018-09-14T15:05:01.136Z,3.07
2018-09-14T15:07:29.881Z,1.90
2018-09-14T15:09:58.667Z,2.83
2018-09-14T15:12:27.258Z,4.33
2018-09-14T15:14:56.011Z,1.83
2018-09-14T15:17:24.711Z,1.70
2018-09-14T15:19:53.417Z,1.60
2018-09-14T15:22:22.113Z,1.43
2018-09-14T15:24:50.818Z,2.07
2018-09-14T15:27:21.540Z,1.73
2018-09-14T15:29:50.434Z,1.53
2018-09-14T15:32:19.419Z,3.13
2018-09-14T15:34:48.172Z,2.80
2018-09-14T15:37:17.024Z,1.97
2018-09-14T15:39:45.666Z,2.50
2018-09-14T15:42:14.289Z,4.93
2018-09-14T15:44:43.055Z,6.13
2018-09-14T15:47:11.759Z,4.50
2018-09-14T15:49:40.373Z,3.07
2018-09-14T15:52:09.086Z,1.80
2018-09-14T15:54:37.770Z,2.27
2018-09-14T15:57:06.490Z,2.20
2018-09-14T15:59:35.132Z,3.23
2018-09-14T16:02:03.828Z,2.10
2018-09-14T16:04:32.497Z,3.57
2018-09-14T16:07:01.258Z,3.17
2018-09-14T16:09:29.962Z,2.57
2018-09-14T16:11:58.604Z,2.40
2018-09-14T16:14:27.296Z,2.00
2018-09-14T16:16:56.165Z,5.17
2018-09-14T16:19:24.965Z,3.37
2018-09-14T16:21:53.678Z,2.10
2018-09-14T16:24:22.332Z,2.67
2018-09-14T16:26:51.047Z,4.73
2018-09-14T16:29:19.767Z,2.80
2018-09-14T16:31:48.493Z,1.70
2018-09-14T16:34:17.037Z,1.57
2018-09-14T16:36:45.763Z,2.20
2018-09-14T16:39:14.370Z,1.50
2018-09-14T16:41:43.140Z,1.60
2018-09-14T16:44:11.953Z,2.07
2018-09-14T16:46:40.773Z,1.70
2018-09-14T16:49:11.156Z,2.00
2018-09-14T16:51:41.416Z,1.40
2018-09-14T16:54:10.163Z,1.23
2018-09-14T16:56:39.117Z,1.43
2018-09-14T16:59:08.321Z,1.40
2018-09-14T17:01:39.320Z,1.17
2018-09-14T17:04:10.209Z,1.10
2018-09-14T17:06:40.221Z,1.40
2018-09-14T17:09:09.669Z,1.10
2018-09-14T17:11:38.570Z,1.00
2018-09-14T17:14:07.997Z,2.27
2018-09-14T17:16:37.031Z,2.00
2018-09-14T17:19:06.105Z,1.40
2018-09-14T17:21:35.206Z,1.57
2018-09-14T17:24:04.149Z,2.63
2018-09-14T17:26:32.836Z,3.27
2018-09-14T17:29:01.418Z,1.60
2018-09-14T17:31:30.562Z,1.40
2018-09-14T17:33:59.580Z,2.23
2018-09-14T17:36:28.351Z,11.13
2018-09-14T17:38:56.917Z,3.70
2018-09-14T17:41:25.567Z,1.63
2018-09-14T17:43:54.226Z,1.40
2018-09-14T17:46:22.950Z,1.80
2018-09-14T17:48:51.638Z,2.27
2018-09-14T17:51:20.524Z,2.17
2018-09-14T17:53:49.243Z,2.07
2018-09-14T17:56:17.981Z,1.80
2018-09-14T17:58:46.838Z,8.13
2018-09-14T18:01:17.387Z,2.00
2018-09-14T18:03:52.104Z,1.57
2018-09-14T18:11:42.533Z,1.27
2018-09-14T18:14:18.694Z,1.87
2018-09-14T18:16:53.082Z,1.30
2018-09-14T18:19:46.445Z,1.17
2018-09-14T18:22:26.433Z,1.23
2018-09-14T18:25:02.506Z,1.57
2018-09-14T18:27:32.635Z,1.20
2018-09-14T18:30:07.299Z,1.90
2018-09-14T18:32:42.341Z,1.53
2018-09-14T18:35:13.768Z,2.60
2018-09-14T18:37:56.880Z,2.00
2018-09-14T18:40:31.377Z,2.70
2018-09-14T18:43:05.827Z,1.83
2018-09-14T18:45:36.263Z,1.10
2018-09-14T18:48:09.612Z,1.57
2018-09-14T18:50:41.306Z,1.97
2018-09-14T18:53:10.692Z,1.67
2018-09-14T18:55:41.210Z,1.20
2018-09-14T18:58:16.370Z,1.90
2018-09-14T19:00:46.854Z,1.60
2018-09-14T19:03:17.913Z,1.53
2018-09-14T19:05:49.591Z,1.80
2018-09-14T19:08:19.032Z,1.77
2018-09-14T19:10:53.746Z,2.00
2018-09-14T19:13:27.399Z,1.97
2018-09-14T19:16:02.840Z,2.10
2018-09-14T19:18:32.084Z,1.73
2018-09-14T19:21:02.892Z,2.10
2018-09-14T19:23:32.288Z,1.67
2018-09-14T19:26:02.832Z,1.90
2018-09-14T19:28:34.296Z,2.43
2018-09-14T19:31:04.370Z,2.27
2018-09-14T19:33:34.457Z,2.00
2018-09-14T19:36:05.911Z,2.73
2018-09-14T19:38:37.743Z,2.30
2018-09-14T19:41:07.041Z,2.37
2018-09-14T19:43:39.094Z,2.27
2018-09-14T19:46:12.161Z,2.20
2018-09-14T19:48:41.633Z,2.50
2018-09-14T19:51:10.898Z,2.27
2018-09-14T19:53:41.736Z,2.20
2018-09-14T19:56:10.909Z,3.20
2018-09-14T19:58:42.720Z,2.17
2018-09-14T20:01:11.706Z,2.00
2018-09-14T20:03:41.731Z,2.43
2018-09-14T20:06:11.755Z,1.93
2018-09-14T20:08:41.342Z,2.20
2018-09-14T20:11:12.451Z,2.47
2018-09-14T20:13:41.500Z,2.43
2018-09-14T20:16:10.636Z,2.20
2018-09-14T20:18:39.876Z,2.10
2018-09-14T20:21:11.038Z,2.27
2018-09-14T20:23:42.541Z,2.13
2018-09-14T20:26:16.999Z,2.60
2018-09-14T20:28:46.228Z,2.60
2018-09-14T20:31:15.446Z,9.80
2018-09-14T20:37:09.033Z,2.50
2018-09-14T20:39:42.351Z,2.23
2018-09-14T20:42:14.089Z,1.80
2018-09-14T20:44:44.936Z,2.20
2018-09-14T20:47:18.914Z,2.17
2018-09-14T20:49:49.939Z,2.07
2018-09-14T20:52:20.823Z,1.70
2018-09-14T20:54:53.140Z,1.77
2018-09-14T20:57:27.459Z,2.73
2018-09-14T20:59:59.199Z,1.83
2018-09-14T21:02:29.894Z,1.77
2018-09-14T21:05:02.694Z,1.30
2018-09-14T21:07:33.533Z,2.30
2018-09-14T21:10:04.656Z,2.00
2018-09-14T21:12:34.091Z,1.60
2018-09-14T21:15:06.972Z,1.50
2018-09-14T21:17:57.908Z,2.20
2018-09-14T21:23:06.975Z,3.20
2018-09-14T21:25:37.214Z,2.60
2018-09-14T21:28:07.429Z,2.30
2018-09-14T21:30:37.941Z,2.07
2018-09-14T21:33:09.494Z,2.67
2018-09-14T21:35:39.281Z,2.50
2018-09-14T21:38:09.875Z,3.00
2018-09-14T21:40:39.172Z,2.60
2018-09-14T21:43:08.837Z,3.10
2018-09-14T21:45:41.865Z,3.03
2018-09-14T21:48:13.548Z,3.07
2018-09-14T21:50:44.602Z,2.57
2018-09-14T21:53:16.077Z,2.57
2018-09-14T21:55:45.407Z,2.57
2018-09-14T21:58:17.166Z,3.00
2018-09-14T22:00:53.524Z,2.30
2018-09-14T22:03:25.953Z,2.53
2018-09-14T22:05:55.397Z,2.63
2018-09-14T22:08:24.852Z,2.47
2018-09-14T22:10:58.117Z,2.20
2018-09-14T22:13:28.347Z,2.50
2018-09-14T22:15:58.707Z,1.70
2018-09-14T22:18:30.429Z,2.07
2018-09-14T22:21:04.172Z,1.70
2018-09-14T22:23:36.566Z,1.67
2018-09-14T22:26:11.936Z,2.00
2018-09-14T22:28:44.201Z,1.70
2018-09-14T22:31:14.344Z,1.87
2018-09-14T22:33:47.012Z,1.80
2018-09-14T22:36:17.270Z,2.00
2018-09-14T22:38:46.734Z,2.23
2018-09-14T22:41:16.833Z,2.33
2018-09-14T22:43:48.290Z,2.77
2018-09-14T22:46:18.286Z,2.20
2018-09-14T22:48:47.774Z,2.33
2018-09-14T22:51:17.240Z,2.30
2018-09-14T22:53:47.164Z,2.57
2018-09-14T22:56:16.647Z,2.70
2018-09-14T22:58:46.221Z,2.60
2018-09-14T23:01:19.024Z,2.60
2018-09-14T23:03:49.755Z,2.27
2018-09-14T23:06:19.326Z,2.70
2018-09-14T23:08:49.500Z,2.80
2018-09-14T23:11:20.792Z,2.40
2018-09-14T23:13:50.335Z,2.60
2018-09-14T23:16:20.346Z,2.40
2018-09-14T23:18:53.975Z,2.53
2018-09-14T23:21:30.185Z,3.00
2018-09-14T23:24:01.870Z,3.20
2018-09-14T23:26:34.643Z,2.57
2018-09-14T23:29:04.853Z,2.20
2018-09-14T23:31:36.432Z,2.30
2018-09-14T23:34:06.935Z,2.50
2018-09-14T23:36:39.148Z,2.33
2018-09-14T23:39:10.758Z,2.30
2018-09-14T23:41:40.298Z,2.13
2018-09-14T23:44:11.500Z,2.47
2018-09-14T23:46:43.214Z,2.37
2018-09-14T23:49:19.627Z,2.13
2018-09-14T23:51:53.642Z,2.27
2018-09-14T23:54:24.294Z,3.00
2018-09-14T23:56:54.620Z,1.90
2018-09-14T23:59:26.802Z,2.27
